Time;durP1;ratioP1;P1;durP2;ratioP2;P2;SDS_P1;SDS_P2;PMS_P1;PMS_P2;Temp;Humidity;BMP_temperature;BMP_pressure;BME280_temperature;BME280_humidity;BME280_pressure;Samples;Min_cycle;Max_cycle;Signal;HPM_P1;HPM_P2
2024/04/05 00:02:15;;;;;;;33.22;5.10;;;;;;;10.46;100.00;100991.41;4974032;28;20043;-79
2024/04/05 00:04:41;;;;;;;36.47;5.13;;;;;;;10.43;100.00;100989.00;4974439;28;20042;-79
2024/04/05 00:07:06;;;;;;;42.30;5.05;;;;;;;10.32;100.00;100984.59;4973144;28;20083;-79
2024/04/05 00:09:31;;;;;;;35.72;5.25;;;;;;;10.22;100.00;100981.88;4974125;28;20035;-80
2024/04/05 00:11:57;;;;;;;43.35;5.43;;;;;;;10.14;100.00;100990.53;4974446;28;20046;-79
2024/04/05 00:14:22;;;;;;;31.15;5.00;;;;;;;10.09;100.00;100984.78;4974149;28;20387;-80
2024/04/05 00:16:49;;;;;;;34.72;5.45;;;;;;;10.09;100.00;100982.13;4975038;28;20038;-80
2024/04/05 00:19:14;;;;;;;30.63;5.10;;;;;;;10.06;100.00;100977.03;4972802;28;20090;-80
2024/04/05 00:21:39;;;;;;;39.85;6.22;;;;;;;10.02;100.00;100971.16;4973626;28;20104;-79
2024/04/05 00:24:05;;;;;;;41.38;6.25;;;;;;;10.01;100.00;100981.94;4972241;28;20042;-80
2024/04/05 00:26:30;;;;;;;38.92;5.28;;;;;;;10.00;100.00;100978.44;4973686;28;20042;-79
2024/04/05 00:28:55;;;;;;;33.40;5.72;;;;;;;10.00;100.00;100973.13;4973425;28;20031;-81
2024/04/05 00:31:21;;;;;;;35.58;4.65;;;;;;;10.00;100.00;100980.22;4972201;28;20038;-79
2024/04/05 00:33:46;;;;;;;31.90;5.45;;;;;;;9.99;100.00;100974.09;4972175;28;20070;-78
2024/04/05 00:36:14;;;;;;;43.67;5.60;;;;;;;9.99;100.00;100974.09;4973616;28;20526;-79
2024/04/05 00:38:40;;;;;;;33.95;4.82;;;;;;;9.98;100.00;100969.72;4973105;28;20031;-79
2024/04/05 00:41:05;;;;;;;27.65;3.72;;;;;;;9.96;100.00;100962.88;4972894;28;20043;-80
2024/04/05 00:43:30;;;;;;;32.47;5.50;;;;;;;9.99;100.00;100965.28;4972480;28;20177;-80
2024/04/05 00:45:56;;;;;;;34.75;5.15;;;;;;;10.01;100.00;100974.78;4971988;28;20575;-80
2024/04/05 00:48:22;;;;;;;30.92;4.57;;;;;;;10.06;100.00;100974.38;4971875;28;20128;-80
2024/04/05 00:50:52;;;;;;;30.00;4.65;;;;;;;10.07;100.00;100974.25;4973071;28;20126;-81
2024/04/05 00:53:23;;;;;;;29.88;3.33;;;;;;;10.12;100.00;100986.31;4973299;28;20059;-79
2024/04/05 00:55:49;;;;;;;19.40;3.72;;;;;;;10.14;100.00;100979.91;4972288;28;20039;-79
2024/04/05 00:58:15;;;;;;;22.67;3.70;;;;;;;10.15;100.00;100983.38;4972539;28;20053;-79
2024/04/05 01:00:40;;;;;;;21.65;3.55;;;;;;;10.17;100.00;100971.66;4973465;28;20034;-79
2024/04/05 01:03:06;;;;;;;25.52;4.00;;;;;;;10.17;100.00;100952.22;4975159;28;20089;-81
2024/04/05 01:05:32;;;;;;;25.65;3.53;;;;;;;10.16;100.00;100969.13;4976002;28;20031;-80
2024/04/05 01:07:57;;;;;;;24.25;4.03;;;;;;;10.17;100.00;100966.34;4977077;28;20034;-80
2024/04/05 01:10:22;;;;;;;21.77;4.22;;;;;;;10.14;100.00;100974.56;4975558;28;20140;-79
2024/04/05 01:12:58;;;;;;;23.95;3.45;;;;;;;10.09;100.00;100974.16;4976375;28;20062;-80
2024/04/05 01:15:24;;;;;;;24.10;3.55;;;;;;;10.08;100.00;100980.44;4976404;28;20046;-81
2024/04/05 01:17:50;;;;;;;23.92;4.03;;;;;;;10.06;100.00;100982.34;4992365;28;20042;-80
2024/04/05 01:20:17;;;;;;;28.73;3.83;;;;;;;10.04;100.00;100979.00;4976991;28;20035;-83
2024/04/05 01:22:50;;;;;;;32.97;6.10;;;;;;;10.05;100.00;100978.88;4976826;28;20030;-79
2024/04/05 01:25:16;;;;;;;31.02;8.02;;;;;;;10.05;100.00;100983.34;4977006;28;20035;-79
2024/04/05 01:27:44;;;;;;;46.28;10.63;;;;;;;10.07;100.00;100978.75;4976407;28;20384;-80
2024/04/05 01:30:10;;;;;;;55.05;12.50;;;;;;;10.05;100.00;100968.25;4976262;28;20038;-80
2024/04/05 01:32:35;;;;;;;44.55;9.48;;;;;;;10.04;100.00;100963.06;4975549;28;20479;-80
2024/04/05 01:35:01;;;;;;;29.88;8.63;;;;;;;10.02;100.00;100962.34;4976460;28;20069;-81
2024/04/05 01:37:26;;;;;;;28.98;5.72;;;;;;;10.05;100.00;100962.09;4975855;28;20062;-79
2024/04/05 01:39:51;;;;;;;29.40;5.80;;;;;;;10.06;100.00;100964.63;4979428;28;20502;-81
2024/04/05 01:42:16;;;;;;;35.72;5.47;;;;;;;10.10;100.00;100964.34;4979937;28;20034;-79
2024/04/05 01:44:42;;;;;;;33.67;4.90;;;;;;;10.08;100.00;100969.78;4980143;28;20363;-80
2024/04/05 01:47:07;;;;;;;30.25;4.35;;;;;;;10.07;100.00;100968.09;4975810;28;20042;-78
2024/04/05 01:49:33;;;;;;;28.88;5.00;;;;;;;10.10;100.00;100962.53;4976922;28;20070;-81
2024/04/05 01:51:58;;;;;;;28.80;4.40;;;;;;;10.13;100.00;100966.75;4976362;28;20467;-80
2024/04/05 01:54:24;;;;;;;35.63;5.32;;;;;;;10.14;100.00;100969.25;4974420;28;20051;-80
2024/04/05 01:56:49;;;;;;;33.53;5.93;;;;;;;10.14;100.00;100971.09;4976008;28;20042;-80
2024/04/05 01:59:14;;;;;;;35.53;6.60;;;;;;;10.17;100.00;100963.69;4974833;28;20039;-80
2024/04/05 02:01:40;;;;;;;30.65;6.18;;;;;;;10.18;100.00;100965.38;4976570;28;20031;-80
2024/04/05 02:04:05;;;;;;;31.42;4.60;;;;;;;10.21;100.00;100964.25;4975503;28;20047;-80
2024/04/05 02:06:30;;;;;;;31.90;4.95;;;;;;;10.21;100.00;100956.25;4975678;28;20063;-79
2024/04/05 02:08:56;;;;;;;38.85;5.10;;;;;;;10.22;100.00;100948.16;4975592;28;20063;-80
2024/04/05 02:11:21;;;;;;;28.42;5.30;;;;;;;10.24;100.00;100948.03;4975639;28;20085;-80
2024/04/05 02:13:46;;;;;;;31.67;4.93;;;;;;;10.23;100.00;100933.88;4975318;28;20042;-78
2024/04/05 02:16:12;;;;;;;23.50;4.40;;;;;;;10.26;100.00;100940.75;4974995;28;20035;-79
2024/04/05 02:18:37;;;;;;;31.85;5.20;;;;;;;10.28;100.00;100940.63;4974283;28;20098;-80
2024/04/05 02:21:03;;;;;;;33.53;5.05;;;;;;;10.29;100.00;100943.16;4975755;28;20034;-79
2024/04/05 02:23:28;;;;;;;37.42;5.88;;;;;;;10.30;100.00;100941.31;4975107;28;20049;-79
2024/04/05 02:25:53;;;;;;;28.38;4.90;;;;;;;10.30;100.00;100941.31;4974756;28;20027;-80
2024/04/05 02:28:19;;;;;;;30.73;5.15;;;;;;;10.31;100.00;100927.88;4975166;28;20483;-80
2024/04/05 02:30:45;;;;;;;26.65;5.65;;;;;;;10.29;100.00;100924.53;4975437;28;20427;-80
2024/04/05 02:33:12;;;;;;;31.23;5.95;;;;;;;10.29;100.00;100918.38;4974492;28;20129;-79
2024/04/05 02:35:38;;;;;;;32.10;4.85;;;;;;;10.28;100.00;100919.34;4976334;28;20050;-81
2024/04/05 02:38:03;;;;;;;31.00;5.22;;;;;;;10.32;100.00;100916.28;4973959;28;20026;-80
2024/04/05 02:40:29;;;;;;;29.98;5.43;;;;;;;10.33;100.00;100909.13;4975378;28;20459;-78
2024/04/05 02:42:54;;;;;;;29.58;5.18;;;;;;;10.35;100.00;100916.03;4975099;28;20066;-79
2024/04/05 02:45:19;;;;;;;33.10;4.63;;;;;;;10.36;100.00;100909.75;4974002;28;20070;-80
2024/04/05 02:47:45;;;;;;;23.23;4.18;;;;;;;10.40;100.00;100918.28;4975219;28;20070;-80
2024/04/05 02:50:10;;;;;;;26.27;5.05;;;;;;;10.42;100.00;100905.72;4973964;28;20464;-80
2024/04/05 02:52:35;;;;;;;30.05;5.10;;;;;;;10.45;100.00;100901.91;4973074;28;20472;-79
2024/04/05 02:55:01;;;;;;;25.30;4.53;;;;;;;10.48;100.00;100893.66;4973539;28;20035;-79
2024/04/05 02:57:26;;;;;;;23.38;4.25;;;;;;;10.45;100.00;100891.28;4974527;28;20049;-78
2024/04/05 02:59:52;;;;;;;28.30;4.90;;;;;;;10.43;100.00;100891.41;4957356;28;20478;-79
2024/04/05 03:02:17;;;;;;;24.30;4.43;;;;;;;10.41;100.00;100901.38;4975090;28;20138;-78
2024/04/05 03:04:42;;;;;;;32.00;4.75;;;;;;;10.39;100.00;100904.16;4974920;28;20109;-80
2024/04/05 03:07:08;;;;;;;24.25;4.55;;;;;;;10.41;100.00;100915.50;4974337;28;20038;-80
2024/04/05 03:09:35;;;;;;;29.25;5.60;;;;;;;10.43;100.00;100914.53;4975296;28;20464;-79
2024/04/05 03:12:01;;;;;;;21.70;3.92;;;;;;;10.43;100.00;100917.19;4973588;28;20023;-79
2024/04/05 03:14:26;;;;;;;28.27;5.03;;;;;;;10.47;100.00;100910.63;4974440;28;20035;-80
2024/04/05 03:16:52;;;;;;;24.90;4.00;;;;;;;10.48;100.00;100905.16;4974936;28;20468;-79
2024/04/05 03:19:17;;;;;;;22.27;3.80;;;;;;;10.49;100.00;100903.34;4974273;28;20368;-78
2024/04/05 03:21:42;;;;;;;22.08;3.80;;;;;;;10.51;100.00;100896.06;4974482;28;20027;-79
2024/04/05 03:24:08;;;;;;;23.48;3.80;;;;;;;10.49;100.00;100890.03;4974315;28;20118;-80
2024/04/05 03:26:37;;;;;;;24.65;4.68;;;;;;;10.50;100.00;100891.72;4972788;28;20038;-80
2024/04/05 03:29:03;;;;;;;23.08;4.43;;;;;;;10.47;100.00;100876.88;4974608;28;20039;-80
2024/04/05 03:31:29;;;;;;;24.90;4.50;;;;;;;10.45;100.00;100860.22;4973135;28;20073;-77
2024/04/05 03:33:54;;;;;;;20.58;3.92;;;;;;;10.52;100.00;100856.00;4973203;28;20067;-79
2024/04/05 03:36:19;;;;;;;24.80;3.88;;;;;;;10.53;100.00;100875.50;4973062;28;20443;-79
2024/04/05 03:38:45;;;;;;;30.73;5.18;;;;;;;10.53;100.00;100878.16;4974261;28;20118;-79
2024/04/05 03:41:10;;;;;;;16.33;3.53;;;;;;;10.51;100.00;100866.78;4973848;28;20043;-78
2024/04/05 03:43:36;;;;;;;21.67;4.10;;;;;;;10.48;100.00;100870.59;4974540;28;20026;-79
2024/04/05 03:46:01;;;;;;;19.25;3.63;;;;;;;10.48;100.00;100872.38;4974416;28;20050;-78
2024/04/05 03:48:27;;;;;;;20.10;3.83;;;;;;;10.49;100.00;100874.91;4974317;28;20069;-78
2024/04/05 03:50:53;;;;;;;21.17;3.50;;;;;;;10.47;100.00;100868.06;4974439;28;20035;-77
2024/04/05 03:53:20;;;;;;;23.27;4.70;;;;;;;10.50;100.00;100870.44;4974272;28;20059;-78
2024/04/05 03:55:45;;;;;;;21.35;3.53;;;;;;;10.52;100.00;100865.81;4972970;28;20060;-77
2024/04/05 03:58:10;;;;;;;29.63;3.88;;;;;;;10.56;100.00;100861.91;4974182;28;20158;-79
2024/04/05 04:00:36;;;;;;;30.58;4.60;;;;;;;10.60;100.00;100865.97;4973870;28;20070;-79
2024/04/05 04:03:02;;;;;;;15.80;3.85;;;;;;;10.62;100.00;100845.38;4974172;28;20424;-77
2024/04/05 04:05:29;;;;;;;26.10;4.13;;;;;;;10.63;100.00;100844.41;4973856;28;20459;-77
2024/04/05 04:07:54;;;;;;;19.48;3.80;;;;;;;10.63;100.00;100844.41;4973890;28;20037;-77
2024/04/05 04:10:20;;;;;;;28.67;4.50;;;;;;;10.61;100.00;100829.56;4974119;28;20043;-78
2024/04/05 04:12:45;;;;;;;21.83;5.15;;;;;;;10.57;100.00;100816.53;4973519;28;20046;-78
2024/04/05 04:15:15;;;;;;;17.55;3.90;;;;;;;10.52;100.00;100778.03;4973830;28;20474;-78
2024/04/05 04:17:41;;;;;;;28.33;4.53;;;;;;;10.47;100.00;100778.44;4973878;28;20037;-78
2024/04/05 04:20:08;;;;;;;22.27;4.32;;;;;;;10.44;100.00;100784.06;4956257;28;20031;-78
2024/04/05 04:22:33;;;;;;;20.13;4.05;;;;;;;10.38;100.00;100796.06;4973636;28;20031;-78
2024/04/05 04:25:00;;;;;;;18.60;4.10;;;;;;;10.30;100.00;100798.56;4973552;28;20094;-78
2024/04/05 04:27:26;;;;;;;22.50;4.05;;;;;;;10.24;100.00;100815.91;4972163;28;20373;-77
2024/04/05 04:29:54;;;;;;;19.27;4.28;;;;;;;10.20;100.00;100822.47;4973217;28;20027;-78
2024/04/05 04:32:20;;;;;;;15.93;3.67;;;;;;;10.22;100.00;100840.94;4972739;28;20106;-78
2024/04/05 04:34:46;;;;;;;18.05;4.15;;;;;;;10.20;100.00;100838.44;4972655;28;20027;-78
2024/04/05 04:37:11;;;;;;;20.08;4.13;;;;;;;10.22;100.00;100831.16;4957902;28;20113;-77
2024/04/05 04:39:39;;;;;;;18.48;4.65;;;;;;;10.21;100.00;100816.19;4977115;28;20058;-78
2024/04/05 04:42:05;;;;;;;24.50;4.75;;;;;;;10.22;100.00;100817.84;4975915;28;20027;-77
2024/04/05 04:44:30;;;;;;;22.50;4.65;;;;;;;10.18;100.00;100808.50;4977006;28;20034;-78
2024/04/05 04:46:56;;;;;;;17.90;4.30;;;;;;;10.13;100.00;100813.38;4976953;28;20127;-78
2024/04/05 04:49:21;;;;;;;27.48;4.75;;;;;;;10.09;100.00;100806.66;4977103;28;20491;-78
2024/04/05 04:51:46;;;;;;;24.25;4.82;;;;;;;10.03;100.00;100807.19;4976657;28;20403;-77
2024/04/05 04:54:13;;;;;;;17.45;4.28;;;;;;;9.96;100.00;100806.06;4976897;28;20114;-78
2024/04/05 04:56:38;;;;;;;18.20;4.28;;;;;;;9.91;100.00;100817.06;4977060;28;20483;-78
2024/04/05 04:59:07;;;;;;;22.20;4.65;;;;;;;9.92;100.00;100825.91;4977037;28;20117;-78
2024/04/05 05:01:32;;;;;;;23.05;5.00;;;;;;;9.95;100.00;100815.00;4977240;28;20173;-77
2024/04/05 05:03:58;;;;;;;30.27;4.75;;;;;;;9.94;100.00;100821.28;4977040;28;20070;-78
2024/04/05 05:06:24;;;;;;;16.13;4.18;;;;;;;9.94;100.00;100827.47;4977262;28;20042;-78
2024/04/05 05:08:49;;;;;;;24.38;5.20;;;;;;;9.97;100.00;100823.69;4976879;28;20110;-78
2024/04/05 05:11:15;;;;;;;19.75;4.07;;;;;;;9.98;100.00;100817.41;4976444;28;20059;-77
2024/04/05 05:13:40;;;;;;;16.77;4.20;;;;;;;9.96;100.00;100816.69;4976390;28;20031;-78
2024/04/05 05:16:07;;;;;;;17.48;4.35;;;;;;;9.99;100.00;100813.78;4977123;28;20089;-77
2024/04/05 05:18:32;;;;;;;17.95;4.32;;;;;;;10.05;100.00;100810.56;4977093;28;20142;-77
2024/04/05 05:20:58;;;;;;;17.13;3.80;;;;;;;10.01;100.00;100802.00;4977545;28;20037;-76
2024/04/05 05:23:23;;;;;;;23.65;4.13;;;;;;;10.03;100.00;100799.19;4975305;28;20070;-76
2024/04/05 05:25:48;;;;;;;24.40;4.65;;;;;;;9.98;100.00;100802.28;4976479;28;20043;-78
2024/04/05 05:28:14;;;;;;;21.02;4.03;;;;;;;9.95;100.00;100794.56;4975478;28;20404;-78
2024/04/05 05:30:40;;;;;;;18.52;4.70;;;;;;;9.96;100.00;100780.31;4977216;28;20042;-76
2024/04/05 05:33:06;;;;;;;21.35;4.60;;;;;;;9.98;100.00;100774.88;4976302;28;20421;-77
2024/04/05 05:35:31;;;;;;;17.20;3.90;;;;;;;10.02;100.00;100785.09;4976285;28;20117;-78
2024/04/05 05:37:58;;;;;;;26.75;4.55;;;;;;;10.07;100.00;100779.34;4976125;28;20074;-78
2024/04/05 05:40:23;;;;;;;20.95;4.38;;;;;;;10.14;100.00;100783.16;4976331;28;20471;-78
2024/04/05 05:42:48;;;;;;;21.92;4.35;;;;;;;10.23;100.00;100768.19;4976407;28;20030;-77
2024/04/05 05:45:14;;;;;;;17.25;3.85;;;;;;;10.30;100.00;100761.34;4976488;28;20134;-77
2024/04/05 05:47:39;;;;;;;18.67;3.92;;;;;;;10.36;100.00;100765.28;4976101;28;20026;-78
2024/04/05 05:50:05;;;;;;;20.48;4.43;;;;;;;10.43;100.00;100753.09;4975109;28;20502;-78
2024/04/05 05:52:31;;;;;;;21.30;5.18;;;;;;;10.51;100.00;100760.38;4975875;28;20117;-76
2024/04/05 05:54:58;;;;;;;21.15;4.40;;;;;;;10.58;100.00;100762.34;4976581;28;20043;-79
2024/04/05 05:57:24;;;;;;;18.00;4.63;;;;;;;10.65;100.00;100759.13;4975211;28;20383;-78
2024/04/05 05:59:49;;;;;;;19.27;5.20;;;;;;;10.71;100.00;100751.41;4975746;28;20034;-77
2024/04/05 06:02:15;;;;;;;29.80;5.53;;;;;;;10.79;100.00;100740.03;4976044;28;20034;-78
2024/04/05 06:04:41;;;;;;;17.38;4.47;;;;;;;10.86;100.00;100735.00;4958443;28;20035;-78
2024/04/05 06:07:06;;;;;;;20.02;4.80;;;;;;;10.89;100.00;100734.72;4958595;28;20050;-79
2024/04/05 06:09:31;;;;;;;22.52;4.57;;;;;;;10.93;100.00;100734.28;4975799;28;20035;-79
2024/04/05 06:11:58;;;;;;;21.88;4.40;;;;;;;10.94;100.00;100717.34;4974730;28;20053;-78
2024/04/05 06:14:23;;;;;;;23.70;4.63;;;;;;;11.01;100.00;100720.25;4974913;28;20468;-78
2024/04/05 06:16:48;;;;;;;13.57;3.97;;;;;;;11.05;100.00;100723.47;4958380;28;20062;-76
2024/04/05 06:19:14;;;;;;;18.75;4.68;;;;;;;11.07;100.00;100705.50;4975717;28;20039;-78
2024/04/05 06:21:39;;;;;;;15.68;3.85;;;;;;;11.10;100.00;100706.03;4975573;28;20108;-78
2024/04/05 06:24:05;;;;;;;19.85;4.20;;;;;;;11.14;100.00;100693.31;4974872;28;20085;-79
2024/04/05 06:26:32;;;;;;;21.20;4.57;;;;;;;11.20;100.00;100692.72;4973561;28;20066;-78
2024/04/05 06:28:57;;;;;;;26.17;3.88;;;;;;;11.26;100.00;100672.66;4973583;28;20531;-77
2024/04/05 06:31:23;;;;;;;17.33;3.72;;;;;;;11.34;100.00;100674.56;4975319;28;20391;-77
2024/04/05 06:33:48;;;;;;;17.55;4.47;;;;;;;11.40;100.00;100677.47;4974084;28;20089;-78
2024/04/05 06:36:14;;;;;;;21.65;3.80;;;;;;;11.42;100.00;100671.97;4974269;28;20035;-76
2024/04/05 06:38:40;;;;;;;14.85;3.55;;;;;;;11.41;100.00;100651.69;4976543;28;20498;-76
2024/04/05 06:41:05;;;;;;;22.75;4.40;;;;;;;11.41;100.00;100646.34;4973904;28;20035;-76
2024/04/05 06:43:31;;;;;;;17.67;3.78;;;;;;;11.40;100.00;100647.34;4974166;28;20494;-77
2024/04/05 06:45:58;;;;;;;12.05;3.40;;;;;;;11.39;100.00;100633.19;4973856;28;20495;-77
2024/04/05 06:48:24;;;;;;;15.98;4.22;;;;;;;11.40;100.00;100628.69;4975104;28;20046;-77
2024/04/05 06:50:50;;;;;;;13.23;3.28;;;;;;;11.37;100.00;100636.97;4975207;28;20034;-77
2024/04/05 06:53:20;;;;;;;18.17;4.18;;;;;;;11.34;100.00;100629.28;4975062;28;20109;-77
2024/04/05 06:55:49;;;;;;;15.93;3.70;;;;;;;11.28;100.00;100617.41;4975144;28;20035;-77
2024/04/05 06:58:15;;;;;;;13.15;3.20;;;;;;;11.24;100.00;100616.00;4974492;28;20443;-77
2024/04/05 07:00:45;;;;;;;13.50;3.15;;;;;;;11.22;100.00;100602.84;4973662;28;20027;-79
2024/04/05 07:03:12;;;;;;;17.20;3.60;;;;;;;11.28;100.00;100606.75;4974527;28;20086;-78
2024/04/05 07:05:37;;;;;;;21.13;4.13;;;;;;;11.34;100.00;100592.81;4975586;28;20535;-78
2024/04/05 07:08:03;;;;;;;13.55;3.60;;;;;;;11.43;100.00;100591.09;4973412;28;20066;-78
2024/04/05 07:10:29;;;;;;;14.40;3.70;;;;;;;11.50;100.00;100600.16;4973177;28;20037;-79
2024/04/05 07:12:54;;;;;;;16.60;3.38;;;;;;;11.55;100.00;100584.53;4974634;28;20034;-77
2024/04/05 07:15:20;;;;;;;16.20;3.95;;;;;;;11.60;100.00;100581.44;4973065;28;20061;-77
2024/04/05 07:17:51;;;;;;;24.23;4.20;;;;;;;11.60;100.00;100579.59;4973233;28;20042;-76
2024/04/05 07:20:21;;;;;;;13.05;3.28;;;;;;;11.58;100.00;100576.25;4974104;28;20118;-78
2024/04/05 07:22:46;;;;;;;17.95;4.00;;;;;;;11.56;100.00;100583.56;4974195;28;20035;-77
2024/04/05 07:25:13;;;;;;;14.40;3.10;;;;;;;11.59;100.00;100601.91;4973219;28;20054;-78
2024/04/05 07:27:39;;;;;;;15.15;3.50;;;;;;;11.63;100.00;100594.47;4973426;28;20031;-76
2024/04/05 07:30:05;;;;;;;13.80;3.40;;;;;;;11.66;100.00;100583.50;4974001;28;20162;-78
2024/04/05 07:32:31;;;;;;;15.30;3.00;;;;;;;11.69;100.00;100579.66;4975089;28;20089;-80
2024/04/05 07:34:56;;;;;;;10.77;2.88;;;;;;;11.73;100.00;100567.72;4975085;28;20046;-79
2024/04/05 07:37:22;;;;;;;12.25;3.05;;;;;;;11.76;100.00;100570.94;4976531;28;20038;-77
2024/04/05 07:39:50;;;;;;;13.13;2.67;;;;;;;11.76;100.00;100562.09;4975338;28;20129;-77
2024/04/05 07:42:16;;;;;;;13.57;3.13;;;;;;;11.73;100.00;100568.53;4974511;28;20035;-78
2024/04/05 07:44:43;;;;;;;8.82;2.63;;;;;;;11.73;100.00;100567.72;4973862;28;20085;-79
2024/04/05 07:47:08;;;;;;;12.38;3.15;;;;;;;11.73;100.00;100567.72;4973023;28;20395;-78
2024/04/05 07:49:34;;;;;;;12.55;2.92;;;;;;;11.66;100.00;100559.50;4973615;28;20086;-79
2024/04/05 07:51:59;;;;;;;9.65;2.60;;;;;;;11.62;100.00;100563.47;4974919;28;20039;-78
2024/04/05 07:54:24;;;;;;;8.57;2.40;;;;;;;11.52;100.00;100555.53;4974156;28;20130;-80
2024/04/05 07:56:52;;;;;;;12.82;3.05;;;;;;;11.45;100.00;100567.81;4973853;28;20435;-78
2024/04/05 07:59:17;;;;;;;10.50;2.92;;;;;;;11.42;100.00;100566.28;4973760;28;20050;-79
2024/04/05 08:01:44;;;;;;;11.90;3.15;;;;;;;11.37;100.00;100557.91;4974443;28;20035;-79
2024/04/05 08:04:09;;;;;;;15.32;2.80;;;;;;;11.34;100.00;100565.34;4973353;28;20041;-79
2024/04/05 08:06:35;;;;;;;10.45;2.47;;;;;;;11.33;100.00;100582.31;4973728;28;20106;-78
2024/04/05 08:09:01;;;;;;;11.65;3.15;;;;;;;11.28;100.00;100572.13;4973208;28;20483;-78
2024/04/05 08:11:26;;;;;;;12.23;2.65;;;;;;;11.29;100.00;100574.63;4971764;28;20030;-79
2024/04/05 08:13:51;;;;;;;15.02;2.85;;;;;;;11.32;100.00;100592.16;4971715;28;20081;-78
2024/04/05 08:16:18;;;;;;;10.93;2.85;;;;;;;11.34;100.00;100592.81;4973373;28;20100;-79
2024/04/05 08:18:43;;;;;;;10.50;2.58;;;;;;;11.38;100.00;100586.22;4971990;28;20042;-80
2024/04/05 08:21:08;;;;;;;12.20;2.90;;;;;;;11.41;100.00;100598.41;4973484;28;20039;-80
2024/04/05 08:23:34;;;;;;;9.43;3.05;;;;;;;11.44;100.00;100596.25;4973103;28;20038;-80
2024/04/05 08:26:00;;;;;;;15.77;2.95;;;;;;;11.51;100.00;100595.66;4973433;28;20039;-79
2024/04/05 08:28:26;;;;;;;9.50;2.58;;;;;;;11.56;100.00;100601.38;4973493;28;20057;-79
2024/04/05 08:30:52;;;;;;;18.90;3.10;;;;;;;11.61;100.00;100602.63;4973008;28;20395;-79
2024/04/05 08:33:18;;;;;;;12.88;2.95;;;;;;;11.67;100.00;100600.31;4973207;28;20050;-77
2024/04/05 08:35:54;;;;;;;13.30;2.78;;;;;;;11.73;100.00;100613.03;4972800;28;20033;-80
2024/04/05 08:38:19;;;;;;;10.75;2.63;;;;;;;11.78;100.00;100603.59;4973280;28;20049;-78
2024/04/05 08:40:45;;;;;;;7.88;2.42;;;;;;;11.78;100.00;100589.44;4973327;28;20467;-79
2024/04/05 08:43:15;;;;;;;15.02;3.15;;;;;;;11.76;100.00;100596.72;4973249;28;20058;-79
2024/04/05 08:45:41;;;;;;;10.20;2.85;;;;;;;11.70;100.00;100616.00;4973620;28;20523;-77
2024/04/05 08:48:08;;;;;;;9.27;2.30;;;;;;;11.61;100.00;100607.94;4971950;28;20122;-78
2024/04/05 08:50:35;;;;;;;5.88;2.47;;;;;;;11.54;100.00;100617.53;4956174;28;20527;-77
2024/04/05 08:53:00;;;;;;;13.00;2.58;;;;;;;11.54;100.00;100608.69;4971882;28;20070;-77
2024/04/05 08:55:26;;;;;;;7.68;2.08;;;;;;;11.53;100.00;100613.19;4973474;28;20043;-77
2024/04/05 08:57:52;;;;;;;15.43;2.35;;;;;;;11.54;100.00;100622.00;4974024;28;20467;-77
2024/04/05 09:00:24;;;;;;;7.90;1.90;;;;;;;11.53;100.00;100607.84;4974006;28;20387;-77
2024/04/05 09:02:53;;;;;;;12.25;2.60;;;;;;;11.55;100.00;100610.34;4973279;28;20062;-76
2024/04/05 09:05:19;;;;;;;10.30;2.70;;;;;;;11.58;100.00;100620.72;4973524;28;20038;-74
2024/04/05 09:07:46;;;;;;;16.25;2.85;;;;;;;11.57;100.00;100616.38;4973237;28;20031;-76
2024/04/05 09:10:14;;;;;;;14.75;2.90;;;;;;;11.59;100.00;100617.91;4972986;28;20031;-75
2024/04/05 09:12:51;;;;;;;6.35;2.05;;;;;;;11.60;100.00;100613.44;4973395;28;20463;-76
2024/04/05 09:15:21;;;;;;;9.90;2.58;;;;;;;11.64;100.00;100593.44;4973319;28;20060;-75
2024/04/05 09:17:47;;;;;;;8.85;2.42;;;;;;;11.76;100.00;100583.41;4973517;28;20062;-75
2024/04/05 09:20:20;;;;;;;7.10;2.20;;;;;;;11.91;100.00;100573.91;4972943;28;20035;-78
2024/04/05 09:22:48;;;;;;;9.10;3.35;;;;;;;12.00;100.00;100582.81;4973215;28;20409;-76
2024/04/05 09:25:15;;;;;;;7.22;2.33;;;;;;;12.08;100.00;100574.06;4975687;28;20026;-77
2024/04/05 09:27:42;;;;;;;10.00;3.15;;;;;;;12.15;100.00;100583.94;4976524;28;20468;-77
2024/04/05 09:30:08;;;;;;;7.22;2.22;;;;;;;12.24;100.00;100587.50;4977148;28;20054;-77
2024/04/05 09:32:35;;;;;;;6.05;1.95;;;;;;;12.38;100.00;100583.41;4976336;28;20121;-76
2024/04/05 09:35:01;;;;;;;11.18;2.20;;;;;;;12.63;100.00;100562.19;4975561;28;20034;-75
2024/04/05 09:37:28;;;;;;;7.97;2.30;;;;;;;12.83;100.00;100565.47;4976767;28;20110;-77
2024/04/05 09:39:53;;;;;;;8.25;2.47;;;;;;;13.07;100.00;100574.56;4976616;28;20043;-77
2024/04/05 09:42:22;;;;;;;7.68;2.00;;;;;;;13.17;100.00;100575.28;4975729;28;20359;-77
2024/04/05 09:44:58;;;;;;;7.28;2.08;;;;;;;13.14;100.00;100562.25;4971683;28;20035;-77
2024/04/05 09:47:27;;;;;;;12.50;1.95;;;;;;;13.19;100.00;100559.91;4989890;28;20106;-77
2024/04/05 09:49:53;;;;;;;9.07;2.30;;;;;;;13.25;100.00;100551.25;4971776;28;20102;-78
2024/04/05 09:52:24;;;;;;;4.60;1.80;;;;;;;13.33;100.00;100539.72;4968744;28;20069;-78
2024/04/05 09:54:56;;;;;;;6.43;1.65;;;;;;;13.41;100.00;100539.78;4970140;28;20142;-77
2024/04/05 09:57:21;;;;;;;6.30;1.73;;;;;;;13.52;100.00;100534.09;4967080;28;20109;-79
2024/04/05 09:59:48;;;;;;;8.30;2.03;;;;;;;13.56;100.00;100538.13;4968987;28;20033;-78
2024/04/05 10:02:17;;;;;;;5.57;1.75;;;;;;;13.63;100.00;100513.41;4968749;28;20049;-78
2024/04/05 10:04:44;;;;;;;6.57;2.00;;;;;;;13.71;100.00;100518.75;4967637;28;20069;-79
2024/04/05 10:07:11;;;;;;;7.78;1.83;;;;;;;13.85;100.00;100511.91;4968581;28;20097;-77
2024/04/05 10:09:37;;;;;;;7.28;2.00;;;;;;;13.98;100.00;100517.56;4971023;28;20031;-78
2024/04/05 10:12:13;;;;;;;6.43;2.15;;;;;;;14.23;100.00;100514.84;4975456;28;20026;-78
2024/04/05 10:14:39;;;;;;;4.68;1.83;;;;;;;14.58;100.00;100512.72;4975333;28;20069;-78
2024/04/05 10:17:10;;;;;;;4.57;1.80;;;;;;;14.54;100.00;100516.75;4976210;28;20041;-77
2024/04/05 10:19:37;;;;;;;5.20;1.83;;;;;;;14.42;100.00;100529.66;4975774;28;20045;-78
2024/04/05 10:22:19;;;;;;;5.35;1.85;;;;;;;14.28;100.00;100529.38;4971889;28;20108;-77
2024/04/05 10:24:44;;;;;;;5.25;1.92;;;;;;;14.05;100.00;100539.97;4974196;28;20138;-77
2024/04/05 10:27:22;;;;;;;8.25;2.00;;;;;;;13.94;100.00;100542.97;4976018;28;20111;-75
2024/04/05 10:29:57;;;;;;;6.55;2.10;;;;;;;13.87;100.00;100533.97;4975144;28;20045;-80
2024/04/05 10:32:23;;;;;;;8.13;2.00;;;;;;;13.81;100.00;100538.16;4974553;28;20336;-79
2024/04/05 10:34:48;;;;;;;10.23;2.05;;;;;;;13.66;100.00;100543.31;4974088;28;20062;-79
2024/04/05 10:37:16;;;;;;;8.73;1.85;;;;;;;13.55;100.00;100554.34;4974239;28;20042;-80
2024/04/05 10:39:41;;;;;;;5.97;1.90;;;;;;;13.38;100.00;100548.97;4973415;28;20034;-78
2024/04/05 10:42:07;;;;;;;7.07;1.98;;;;;;;13.20;100.00;100561.59;4973420;28;20062;-80
2024/04/05 10:44:33;;;;;;;6.20;2.30;;;;;;;13.00;100.00;100577.03;4957018;28;20037;-82
2024/04/05 10:46:59;;;;;;;8.35;2.00;;;;;;;12.86;100.00;100578.50;4970921;28;20030;-78
2024/04/05 10:49:25;;;;;;;8.63;1.83;;;;;;;12.65;100.00;100574.38;4950776;28;20117;-78
2024/04/05 10:51:58;;;;;;;6.53;2.10;;;;;;;12.48;100.00;100584.16;4968111;28;20050;-78
2024/04/05 10:54:23;;;;;;;6.40;2.40;;;;;;;12.38;100.00;100595.94;4968147;28;20045;-77
2024/04/05 10:56:49;;;;;;;7.88;2.38;;;;;;;12.32;100.00;100592.06;4968509;28;20030;-78
2024/04/05 10:59:17;;;;;;;9.38;2.70;;;;;;;12.27;100.00;100599.66;4966520;28;20042;-78
2024/04/05 11:01:45;;;;;;;6.32;2.38;;;;;;;12.23;100.00;100615.16;4968003;28;20112;-78
2024/04/05 11:04:12;;;;;;;7.65;2.50;;;;;;;12.25;100.00;100612.34;4968009;28;20121;-79
2024/04/05 11:06:38;;;;;;;7.63;2.55;;;;;;;12.19;100.00;100626.31;4968368;28;20030;-80
2024/04/05 11:09:06;;;;;;;6.45;2.30;;;;;;;12.10;100.00;100647.56;4968005;28;20098;-77